Time;durP1;ratioP1;P1;durP2;ratioP2;P2;SDS_P1;SDS_P2;PMS_P1;PMS_P2;Temp;Humidity;BMP_temperature;BMP_pressure;BME280_temperature;BME280_humidity;BME280_pressure;Samples;Min_cycle;Max_cycle;Signal;HPM_P1;HPM_P2
2023/10/25 00:01:26;;;;;;;;;;;;;;;28.88;78.12;101069.34;5041564;28;70588;-40
2023/10/25 00:03:56;;;;;;;;;;;;;;;28.91;78.52;101071.63;5041759;28;67017;-43
2023/10/25 00:06:26;;;;;;;;;;;;;;;28.95;78.75;101078.31;5057225;28;69235;-42
2023/10/25 00:08:55;;;;;;;;;;;;;;;29.00;78.98;101074.16;5040757;28;66771;-42
2023/10/25 00:11:26;;;;;;;;;;;;;;;29.04;79.42;101080.88;5042667;28;69727;-41
2023/10/25 00:13:55;;;;;;;;;;;;;;;29.06;79.47;101086.88;5037519;28;67092;-40
2023/10/25 00:16:25;;;;;;;;;;;;;;;29.06;79.41;101076.94;5032997;28;70662;-41
2023/10/25 00:18:55;;;;;;;;;;;;;;;29.05;79.36;101079.81;5036034;28;66682;-41
2023/10/25 00:21:25;;;;;;;;;;;;;;;29.07;79.65;101085.88;5034401;28;70390;-41
2023/10/25 00:23:55;;;;;;;;;;;;;;;29.11;80.14;101087.09;5028312;28;66962;-41
2023/10/25 00:26:25;;;;;;;;;;;;;;;29.14;79.81;101089.41;5043385;28;70399;-41
2023/10/25 00:28:58;;;;;;;;;;;;;;;29.15;80.19;101085.69;5041202;28;67560;-41
2023/10/25 00:31:28;;;;;;;;;;;;;;;29.16;80.09;101095.44;5040444;28;70385;-41
2023/10/25 00:33:58;;;;;;;;;;;;;;;29.17;80.40;101099.81;5041636;28;66615;-41
2023/10/25 00:36:32;;;;;;;;;;;;;;;29.17;80.24;101107.94;5038025;28;70159;-41
2023/10/25 00:39:03;;;;;;;;;;;;;;;29.17;80.64;101105.22;5039104;28;66421;-41
2023/10/25 00:41:33;;;;;;;;;;;;;;;29.18;80.38;101106.88;5041046;28;69878;-43
2023/10/25 00:44:07;;;;;;;;;;;;;;;29.20;81.20;101109.38;5037868;28;66182;-40
2023/10/25 00:46:37;;;;;;;;;;;;;;;29.20;80.43;101110.22;5038565;28;70512;-40
2023/10/25 00:49:07;;;;;;;;;;;;;;;29.24;77.96;101121.44;5040770;28;66325;-41
2023/10/25 00:51:37;;;;;;;;;;;;;;;29.27;76.87;101129.13;5038677;28;70641;-41
2023/10/25 00:54:08;;;;;;;;;;;;;;;29.31;76.25;101130.38;5041209;28;66521;-41
2023/10/25 00:56:38;;;;;;;;;;;;;;;29.33;75.13;101142.66;5041472;28;70435;-40
2023/10/25 00:59:10;;;;;;;;;;;;;;;29.36;75.11;101144.97;5046379;28;66663;-41
2023/10/25 01:01:41;;;;;;;;;;;;;;;29.39;74.55;101146.41;5030717;28;70758;-41
2023/10/25 01:04:15;;;;;;;;;;;;;;;29.42;73.70;101145.19;5040680;28;66653;-41
2023/10/25 01:06:45;;;;;;;;;;;;;;;29.45;73.74;101147.47;5038865;28;70245;-44
2023/10/25 01:09:15;;;;;;;;;;;;;;;29.47;73.31;101134.59;5039296;28;66024;-41
2023/10/25 01:11:45;;;;;;;;;;;;;;;29.48;73.06;101131.69;5054917;28;69816;-41
2023/10/25 01:14:15;;;;;;;;;;;;;;;29.51;72.98;101130.47;5038045;28;66257;-42
2023/10/25 01:16:47;;;;;;;;;;;;;;;29.54;72.78;101141.69;5035695;28;69372;-42
2023/10/25 01:19:28;;;;;;;;;;;;;;;29.56;72.31;101142.31;5051150;28;65145;-41
2023/10/25 01:21:58;;;;;;;;;;;;;;;29.58;72.52;101140.22;5038782;28;70391;-40
2023/10/25 01:24:29;;;;;;;;;;;;;;;29.60;72.01;101140.03;5054476;28;65425;-41
2023/10/25 01:27:01;;;;;;;;;;;;;;;29.62;72.03;101148.78;5036988;28;69706;-40
2023/10/25 01:29:32;;;;;;;;;;;;;;;29.65;71.85;101153.78;5040232;28;66767;-41
2023/10/25 01:32:02;;;;;;;;;;;;;;;29.66;72.16;101168.97;5039420;28;70219;-40
2023/10/25 01:34:32;;;;;;;;;;;;;;;29.68;71.94;101166.91;5035873;28;66131;-41
2023/10/25 01:37:02;;;;;;;;;;;;;;;29.71;71.59;101162.97;5037084;28;69721;-40
2023/10/25 01:39:35;;;;;;;;;;;;;;;29.73;71.89;101166.28;5039319;28;65298;-40
2023/10/25 01:42:06;;;;;;;;;;;;;;;29.74;71.50;101166.06;5034602;28;68655;-41
2023/10/25 01:44:35;;;;;;;;;;;;;;;29.77;71.73;101172.94;5034831;28;65933;-41
2023/10/25 01:47:06;;;;;;;;;;;;;;;29.78;71.44;101175.44;5038333;28;69187;-41
2023/10/25 01:49:36;;;;;;;;;;;;;;;29.80;71.10;101178.75;5040781;28;66586;-41
2023/10/25 01:52:06;;;;;;;;;;;;;;;29.82;71.26;101184.81;5039922;28;70709;-41
2023/10/25 01:54:36;;;;;;;;;;;;;;;29.86;71.02;101189.81;5039283;28;66397;-40
2023/10/25 01:57:07;;;;;;;;;;;;;;;29.89;71.17;101197.50;5038596;28;69717;-42
2023/10/25 01:59:37;;;;;;;;;;;;;;;29.91;71.15;101200.84;5037467;28;66600;-41
2023/10/25 02:02:07;;;;;;;;;;;;;;;29.91;71.26;101198.13;5025181;28;70512;-41
2023/10/25 02:04:37;;;;;;;;;;;;;;;29.94;70.93;101195.00;5040271;28;66899;-43
2023/10/25 02:07:16;;;;;;;;;;;;;;;29.97;71.21;101189.19;5038273;28;70208;-43
2023/10/25 02:09:46;;;;;;;;;;;;;;;29.99;70.99;101187.13;5035050;28;66476;-45
2023/10/25 02:12:16;;;;;;;;;;;;;;;30.00;70.44;101189.59;5033325;28;70542;-43
2023/10/25 02:14:50;;;;;;;;;;;;;;;30.02;70.50;101198.34;5036914;28;66192;-43
2023/10/25 02:17:20;;;;;;;;;;;;;;;30.05;70.87;101197.94;5038622;28;70298;-42
2023/10/25 02:19:51;;;;;;;;;;;;;;;30.07;70.82;101197.72;5053382;28;66230;-43
2023/10/25 02:22:40;;;;;;;;;;;;;;;30.10;70.84;101194.63;5037849;28;69408;-42
2023/10/25 02:25:11;;;;;;;;;;;;;;;30.11;70.55;101190.84;5038846;28;65894;-45
2023/10/25 02:27:43;;;;;;;;;;;;;;;30.15;70.37;101196.69;5040594;28;70912;-44
2023/10/25 02:30:14;;;;;;;;;;;;;;;30.17;70.38;101200.00;5040156;28;65476;-42
2023/10/25 02:32:44;;;;;;;;;;;;;;;30.20;70.45;101188.78;5038285;28;70090;-45
2023/10/25 02:35:15;;;;;;;;;;;;;;;30.22;70.61;101192.97;5036437;28;66695;-43
2023/10/25 02:37:46;;;;;;;;;;;;;;;30.25;70.54;101191.72;5040483;28;70241;-42
2023/10/25 02:40:16;;;;;;;;;;;;;;;30.26;70.31;101194.22;5040750;28;66546;-43
2023/10/25 02:42:47;;;;;;;;;;;;;;;30.28;70.36;101183.19;5053514;28;70130;-44
2023/10/25 02:45:17;;;;;;;;;;;;;;;30.31;70.14;101188.16;5039644;28;66618;-43
2023/10/25 02:47:47;;;;;;;;;;;;;;;30.34;70.23;101195.03;5043112;28;69757;-42
2023/10/25 02:50:18;;;;;;;;;;;;;;;30.35;70.27;101191.31;5042287;28;66804;-44
2023/10/25 02:52:48;;;;;;;;;;;;;;;30.38;70.33;101204.44;5037993;28;70470;-43
2023/10/25 02:55:18;;;;;;;;;;;;;;;30.39;70.01;101197.97;5041664;28;66605;-46
2023/10/25 02:57:48;;;;;;;;;;;;;;;30.42;70.02;101198.41;5042740;28;69698;-43
2023/10/25 03:00:19;;;;;;;;;;;;;;;30.44;69.90;101190.03;5031813;28;66306;-43
2023/10/25 03:02:49;;;;;;;;;;;;;;;30.46;70.06;101193.38;5042093;28;70570;-43
2023/10/25 03:05:19;;;;;;;;;;;;;;;30.48;69.73;101192.13;5032209;28;66037;-43
2023/10/25 03:07:50;;;;;;;;;;;;;;;30.51;70.04;101196.31;5044881;28;70556;-43
2023/10/25 03:10:23;;;;;;;;;;;;;;;30.53;69.83;101183.38;5053890;28;66217;-43
2023/10/25 03:12:56;;;;;;;;;;;;;;;30.55;70.20;101186.69;5041926;28;70351;-45
2023/10/25 03:15:26;;;;;;;;;;;;;;;30.57;69.55;101181.91;5056962;28;66678;-43
2023/10/25 03:17:56;;;;;;;;;;;;;;;30.57;70.02;101176.50;5025169;28;68890;-44
2023/10/25 03:20:27;;;;;;;;;;;;;;;30.61;69.54;101177.72;5035030;28;66073;-42
2023/10/25 03:22:59;;;;;;;;;;;;;;;30.63;69.38;101172.94;5034201;28;70122;-43
2023/10/25 03:25:30;;;;;;;;;;;;;;;30.64;69.36;101161.06;5041764;28;67086;-42
2023/10/25 03:28:02;;;;;;;;;;;;;;;30.67;69.28;101163.38;5032427;28;70062;-43
2023/10/25 03:30:33;;;;;;;;;;;;;;;30.68;69.23;101165.00;5038484;28;66834;-42
2023/10/25 03:33:03;;;;;;;;;;;;;;;30.70;69.50;101168.34;5040730;28;70288;-45
2023/10/25 03:35:33;;;;;;;;;;;;;;;30.71;69.33;101152.94;5040344;28;66014;-44
2023/10/25 03:38:03;;;;;;;;;;;;;;;30.73;69.37;101150.84;5040974;28;70090;-43
2023/10/25 03:40:35;;;;;;;;;;;;;;;30.74;68.98;101149.78;5043232;28;66536;-45
2023/10/25 03:43:05;;;;;;;;;;;;;;;30.75;68.87;101148.75;5034534;28;70102;-44
2023/10/25 03:45:35;;;;;;;;;;;;;;;30.77;69.14;101145.84;5036194;28;66717;-44
2023/10/25 03:48:06;;;;;;;;;;;;;;;30.79;69.08;101138.34;5037198;28;70177;-43
2023/10/25 03:50:36;;;;;;;;;;;;;;;30.81;69.08;101136.25;5039609;28;65992;-45
2023/10/25 03:53:06;;;;;;;;;;;;;;;30.82;68.44;101138.75;5038491;28;70067;-43
2023/10/25 03:55:35;;;;;;;;;;;;;;;30.82;68.86;101124.38;5042673;28;66931;-44
2023/10/25 03:58:05;;;;;;;;;;;;;;;30.85;69.14;101118.53;5040145;28;70443;-43
2023/10/25 04:00:35;;;;;;;;;;;;;;;30.86;68.85;101109.34;5035952;28;66750;-44
2023/10/25 04:03:05;;;;;;;;;;;;;;;30.87;68.93;101108.31;5033156;28;70570;-43
2023/10/25 04:05:35;;;;;;;;;;;;;;;30.89;68.63;101112.47;5040704;28;65694;-44
2023/10/25 04:08:05;;;;;;;;;;;;;;;30.90;68.78;101107.91;5041887;28;68945;-43
2023/10/25 04:10:34;;;;;;;;;;;;;;;30.92;68.80;101111.19;5037691;28;66888;-43
2023/10/25 04:13:04;;;;;;;;;;;;;;;30.93;68.84;101108.28;5040151;28;69711;-45
2023/10/25 04:15:35;;;;;;;;;;;;;;;30.96;68.54;101100.78;5031529;28;65989;-43
2023/10/25 04:18:09;;;;;;;;;;;;;;;30.97;68.78;101081.59;5033800;28;70489;-44
2023/10/25 04:20:39;;;;;;;;;;;;;;;30.99;68.67;101082.22;5040056;28;65887;-43
2023/10/25 04:23:08;;;;;;;;;;;;;;;31.00;68.30;101078.44;5036927;28;70429;-42
2023/10/25 04:25:38;;;;;;;;;;;;;;;31.02;68.21;101075.53;5048501;28;65702;-42
2023/10/25 04:28:09;;;;;;;;;;;;;;;31.03;68.37;101066.34;5039295;28;69456;-43
2023/10/25 04:30:38;;;;;;;;;;;;;;;31.05;68.51;101059.66;5038113;28;67208;-42
2023/10/25 04:33:09;;;;;;;;;;;;;;;31.07;68.34;101056.75;5035358;28;69814;-43
2023/10/25 04:35:40;;;;;;;;;;;;;;;31.09;67.92;101043.81;5034835;28;65498;-42
2023/10/25 04:38:10;;;;;;;;;;;;;;;31.10;68.22;101031.94;5040891;28;69868;-42
2023/10/25 04:40:40;;;;;;;;;;;;;;;31.13;68.12;101031.50;5033385;28;66312;-43
2023/10/25 04:43:10;;;;;;;;;;;;;;;31.14;68.38;101028.56;5040368;28;70068;-44
2023/10/25 04:45:39;;;;;;;;;;;;;;;31.16;67.95;101042.72;5039159;28;66362;-43
2023/10/25 04:48:09;;;;;;;;;;;;;;;31.19;67.90;101035.22;5037748;28;70946;-42
2023/10/25 04:50:39;;;;;;;;;;;;;;;31.22;67.67;101038.31;5040662;28;66667;-43
2023/10/25 04:53:09;;;;;;;;;;;;;;;31.23;68.11;101029.13;5039242;28;69400;-42
2023/10/25 04:55:43;;;;;;;;;;;;;;;31.24;68.04;101011.00;5035070;28;66530;-42
2023/10/25 04:58:13;;;;;;;;;;;;;;;31.26;67.95;101019.72;5038773;28;69772;-43
2023/10/25 05:00:43;;;;;;;;;;;;;;;31.28;67.96;101025.75;5040556;28;67474;-43
2023/10/25 05:03:13;;;;;;;;;;;;;;;31.28;67.94;101018.44;5035028;28;70202;-45
2023/10/25 05:06:04;;;;;;;;;;;;;;;31.31;67.79;101006.34;5036542;28;66634;-43
2023/10/25 05:08:35;;;;;;;;;;;;;;;31.31;67.84;101007.16;5038902;28;70603;-42
2023/10/25 05:11:05;;;;;;;;;;;;;;;31.33;67.67;101001.53;5034314;28;65931;-47
2023/10/25 05:13:36;;;;;;;;;;;;;;;31.34;67.72;101005.91;5034203;28;70345;-43
2023/10/25 05:16:06;;;;;;;;;;;;;;;31.35;67.77;100994.84;5028185;28;66425;-43
2023/10/25 05:18:37;;;;;;;;;;;;;;;31.37;67.55;101000.06;5039560;28;70555;-44
2023/10/25 05:21:07;;;;;;;;;;;;;;;31.39;67.54;100987.13;5039528;28;66731;-43
2023/10/25 05:23:36;;;;;;;;;;;;;;;31.39;67.26;100985.25;5030901;28;69895;-45
2023/10/25 05:26:07;;;;;;;;;;;;;;;31.43;67.63;100972.09;5034652;28;66095;-43
2023/10/25 05:28:37;;;;;;;;;;;;;;;31.44;67.51;100956.66;5039649;28;69286;-43
2023/10/25 05:31:08;;;;;;;;;;;;;;;31.45;67.15;100971.84;5037961;28;65218;-44
2023/10/25 05:33:38;;;;;;;;;;;;;;;31.46;67.36;100973.53;5033861;28;70729;-42
2023/10/25 05:36:09;;;;;;;;;;;;;;;31.46;67.17;100971.66;5039838;28;67009;-43
2023/10/25 05:38:38;;;;;;;;;;;;;;;31.47;66.97;100973.28;5034688;28;70504;-43
2023/10/25 05:41:11;;;;;;;;;;;;;;;31.49;67.09;100963.06;5039525;28;66463;-44
2023/10/25 05:43:42;;;;;;;;;;;;;;;31.50;67.11;100937.59;5040516;28;69926;-43
2023/10/25 05:46:11;;;;;;;;;;;;;;;31.51;66.93;100936.56;5039433;28;64980;-42
2023/10/25 05:48:42;;;;;;;;;;;;;;;31.54;67.17;100941.53;5040379;28;70645;-43
2023/10/25 05:51:12;;;;;;;;;;;;;;;31.54;67.06;100925.28;5039527;28;66483;-43
2023/10/25 05:53:42;;;;;;;;;;;;;;;31.53;66.79;100918.16;5040000;28;70247;-43
2023/10/25 05:56:12;;;;;;;;;;;;;;;31.56;66.66;100914.19;5036926;28;65937;-44
2023/10/25 05:58:42;;;;;;;;;;;;;;;31.56;66.78;100908.75;5038797;28;70648;-44
2023/10/25 06:01:12;;;;;;;;;;;;;;;31.58;66.61;100906.66;5037975;28;66961;-44
2023/10/25 06:03:46;;;;;;;;;;;;;;;31.59;66.54;100911.88;5038731;28;70433;-44
2023/10/25 06:06:17;;;;;;;;;;;;;;;31.61;66.83;100908.94;5038909;28;66605;-41
2023/10/25 06:08:46;;;;;;;;;;;;;;;31.60;66.37;100913.53;5035425;28;68993;-44
2023/10/25 06:11:17;;;;;;;;;;;;;;;31.60;66.42;100902.69;5029656;28;66644;-43
2023/10/25 06:13:46;;;;;;;;;;;;;;;31.62;66.64;100907.84;5036110;28;70324;-42
2023/10/25 06:16:16;;;;;;;;;;;;;;;31.61;66.61;100887.22;5038366;28;66282;-44
2023/10/25 06:18:46;;;;;;;;;;;;;;;31.63;66.53;100881.59;5039417;28;70625;-43
2023/10/25 06:21:17;;;;;;;;;;;;;;;31.63;66.66;100868.03;5053981;28;66991;-42
2023/10/25 06:23:46;;;;;;;;;;;;;;;31.63;66.39;100868.84;5038633;28;69894;-43
2023/10/25 06:26:17;;;;;;;;;;;;;;;31.64;66.35;100865.09;5040720;28;66869;-43
2023/10/25 06:28:47;;;;;;;;;;;;;;;31.52;66.52;100859.59;5038239;28;70441;-43
2023/10/25 06:31:17;;;;;;;;;;;;;;;31.66;66.46;100894.69;5029851;28;65342;-46
2023/10/25 06:33:47;;;;;;;;;;;;;;;31.69;66.25;100902.38;5038177;28;70893;-43
2023/10/25 06:36:17;;;;;;;;;;;;;;;31.68;66.43;100914.25;5026626;28;66627;-44
2023/10/25 06:38:47;;;;;;;;;;;;;;;31.68;66.68;100914.25;5027300;28;70456;-43
2023/10/25 06:41:18;;;;;;;;;;;;;;;31.70;66.28;100909.44;5028248;28;66153;-44
2023/10/25 06:43:48;;;;;;;;;;;;;;;31.70;66.40;100912.16;5022319;28;70284;-42
2023/10/25 06:46:18;;;;;;;;;;;;;;;31.70;66.41;100907.56;5036949;28;66648;-41
2023/10/25 06:48:48;;;;;;;;;;;;;;;31.73;66.46;100922.56;5031838;28;69430;-45
2023/10/25 06:51:19;;;;;;;;;;;;;;;31.70;66.33;100920.31;5035421;28;65936;-40
2023/10/25 06:53:49;;;;;;;;;;;;;;;31.72;66.59;100904.63;5033337;28;69619;-43
2023/10/25 06:56:19;;;;;;;;;;;;;;;31.70;66.65;100904.03;5039675;28;66770;-41
2023/10/25 06:58:49;;;;;;;;;;;;;;;31.70;66.69;100904.03;5035197;28;70323;-41
2023/10/25 07:01:23;;;;;;;;;;;;;;;31.71;66.54;100919.25;5029600;28;67728;-42
2023/10/25 07:03:56;;;;;;;;;;;;;;;31.72;66.64;100905.47;5041597;28;70344;-40
2023/10/25 07:06:27;;;;;;;;;;;;;;;31.73;66.43;100890.00;5042059;28;66780;-41
2023/10/25 07:08:57;;;;;;;;;;;;;;;31.70;66.44;100891.28;5041704;28;68791;-41
2023/10/25 07:11:27;;;;;;;;;;;;;;;31.72;66.40;100882.94;5042071;28;66557;-41
2023/10/25 07:13:57;;;;;;;;;;;;;;;31.71;66.50;100875.88;5038838;28;70150;-40
2023/10/25 07:16:27;;;;;;;;;;;;;;;31.70;66.59;100871.47;5041804;28;66646;-42
2023/10/25 07:18:57;;;;;;;;;;;;;;;31.69;66.54;100867.13;5038952;28;70538;-41
2023/10/25 07:21:27;;;;;;;;;;;;;;;31.70;66.61;100864.16;5038429;28;65606;-41
2023/10/25 07:23:57;;;;;;;;;;;;;;;31.70;66.59;100857.94;5039901;28;70103;-41
2023/10/25 07:26:27;;;;;;;;;;;;;;;31.71;66.65;100851.47;5042626;28;67011;-41
2023/10/25 07:28:57;;;;;;;;;;;;;;;31.70;66.76;100842.47;5039208;28;70071;-41
2023/10/25 07:31:27;;;;;;;;;;;;;;;31.72;66.78;100844.97;5038551;28;65300;-40
2023/10/25 07:33:57;;;;;;;;;;;;;;;31.70;66.77;100841.66;5027000;28;68896;-41
2023/10/25 07:36:27;;;;;;;;;;;;;;;31.69;66.87;100840.00;5029233;28;67220;-42
2023/10/25 07:38:57;;;;;;;;;;;;;;;31.69;66.65;100845.44;5041862;28;70792;-41
2023/10/25 07:41:27;;;;;;;;;;;;;;;31.55;66.95;100828.50;5038297;28;66891;-41
2023/10/25 07:43:58;;;;;;;;;;;;;;;31.69;66.83;100861.69;5034526;28;69702;-41
2023/10/25 07:46:27;;;;;;;;;;;;;;;31.68;66.67;100865.44;5041518;28;66210;-41
2023/10/25 07:48:57;;;;;;;;;;;;;;;31.67;66.94;100880.91;5048671;28;69449;-41
2023/10/25 07:51:27;;;;;;;;;;;;;;;31.67;66.92;100874.66;5038536;28;67198;-42
2023/10/25 07:53:57;;;;;;;;;;;;;;;31.66;67.05;100873.00;5031079;28;70251;-42
2023/10/25 07:56:27;;;;;;;;;;;;;;;31.65;67.05;100869.47;5038320;28;67098;-40
2023/10/25 07:59:00;;;;;;;;;;;;;;;31.64;66.94;100853.41;5037107;28;70146;-41
2023/10/25 08:01:29;;;;;;;;;;;;;;;31.64;67.01;100853.41;5040876;28;65750;-41
2023/10/25 08:03:59;;;;;;;;;;;;;;;31.63;67.20;100847.16;5038143;28;69854;-41
2023/10/25 08:06:30;;;;;;;;;;;;;;;31.61;67.15;100850.09;5029749;28;67198;-40
2023/10/25 08:09:00;;;;;;;;;;;;;;;31.61;67.01;100846.56;5039032;28;70442;-41
2023/10/25 08:11:34;;;;;;;;;;;;;;;31.60;67.13;100847.63;5040576;28;67049;-40
2023/10/25 08:14:04;;;;;;;;;;;;;;;31.59;67.12;100837.81;5055118;28;69430;-42
2023/10/25 08:16:39;;;;;;;;;;;;;;;31.58;67.15;100833.47;5040696;28;66106;-41
2023/10/25 08:19:09;;;;;;;;;;;;;;;31.56;67.19;100830.97;5037567;28;70578;-42
2023/10/25 08:21:40;;;;;;;;;;;;;;;31.56;67.06;100820.13;5041091;28;66994;-41
2023/10/25 08:24:10;;;;;;;;;;;;;;;31.56;67.17;100813.88;5041190;28;69694;-42
2023/10/25 08:26:40;;;;;;;;;;;;;;;31.54;67.52;100816.00;5040214;28;66941;-41
2023/10/25 08:29:11;;;;;;;;;;;;;;;31.53;67.23;100820.56;5021451;28;69595;-42
2023/10/25 08:31:45;;;;;;;;;;;;;;;31.53;67.39;100820.56;5052091;28;66400;-43
2023/10/25 08:34:18;;;;;;;;;;;;;;;31.51;67.35;100809.16;5040387;28;70348;-41
2023/10/25 08:36:49;;;;;;;;;;;;;;;31.51;67.44;100817.28;5037277;28;66399;-40
2023/10/25 08:39:21;;;;;;;;;;;;;;;31.51;67.60;100821.84;5037526;28;71023;-42
2023/10/25 08:41:52;;;;;;;;;;;;;;;31.48;67.63;100817.72;5025241;28;65985;-42
2023/10/25 08:44:23;;;;;;;;;;;;;;;31.47;67.68;100813.34;5044225;28;69823;-42
2023/10/25 08:46:54;;;;;;;;;;;;;;;31.46;68.07;100819.84;5039489;28;65970;-41
2023/10/25 08:49:24;;;;;;;;;;;;;;;31.46;67.42;100819.00;5041419;28;70615;-40
2023/10/25 08:51:54;;;;;;;;;;;;;;;31.44;67.59;100821.94;5038619;28;66637;-44
2023/10/25 08:54:24;;;;;;;;;;;;;;;31.44;67.68;100827.34;5039086;28;69615;-42
2023/10/25 08:56:54;;;;;;;;;;;;;;;31.44;67.82;100827.34;5041759;28;66885;-42
2023/10/25 08:59:24;;;;;;;;;;;;;;;31.44;67.90;100831.94;5037490;28;70441;-42
2023/10/25 09:01:55;;;;;;;;;;;;;;;31.42;67.98;100828.63;5049214;28;67072;-41
2023/10/25 09:04:25;;;;;;;;;;;;;;;31.42;68.09;100829.44;5046469;28;69497;-41
2023/10/25 09:06:55;;;;;;;;;;;;;;;31.40;68.17;100823.44;5037191;28;65459;-40
2023/10/25 09:09:38;;;;;;;;;;;;;;;31.41;68.11;100824.28;5038547;28;69773;-41
2023/10/25 09:12:19;;;;;;;;;;;;;;;31.39;68.19;100824.47;5040588;28;65513;-41
2023/10/25 09:14:52;;;;;;;;;;;;;;;31.38;68.18;100825.56;5040955;28;69729;-40
2023/10/25 09:17:22;;;;;;;;;;;;;;;31.37;68.35;100832.00;5040962;28;66535;-41
2023/10/25 09:19:52;;;;;;;;;;;;;;;31.36;68.23;100833.91;5040551;28;70285;-40
2023/10/25 09:22:26;;;;;;;;;;;;;;;31.37;68.38;100838.28;5041374;28;67030;-40
2023/10/25 09:25:00;;;;;;;;;;;;;;;31.35;68.36;100839.53;5039633;28;69828;-41
2023/10/25 09:27:32;;;;;;;;;;;;;;;31.24;70.42;100853.81;5035442;28;66374;-40
2023/10/25 09:30:13;;;;;;;;;;;;;;;31.03;73.77;100841.50;5036674;28;70435;-41
2023/10/25 09:32:46;;;;;;;;;;;;;;;30.91;74.87;100844.94;5039014;28;65740;-41
2023/10/25 09:35:16;;;;;;;;;;;;;;;30.84;75.62;100843.31;5038244;28;69717;-41
2023/10/25 09:37:46;;;;;;;;;;;;;;;30.80;76.82;100844.81;5040099;28;66396;-41
2023/10/25 09:40:16;;;;;;;;;;;;;;;30.76;77.26;100846.25;5037969;28;69902;-42
2023/10/25 09:42:52;;;;;;;;;;;;;;;30.73;77.75;100853.81;5040236;28;66149;-42
2023/10/25 09:45:28;;;;;;;;;;;;;;;30.70;78.17;100873.19;5039466;28;70182;-41
2023/10/25 09:48:00;;;;;;;;;;;;;;;30.75;78.37;100866.28;5030834;28;66699;-40
2023/10/25 09:50:32;;;;;;;;;;;;;;;30.86;77.03;100876.44;5040182;28;70653;-42
2023/10/25 09:53:09;;;;;;;;;;;;;;;30.94;75.76;100876.16;5024871;28;65478;-41
2023/10/25 09:55:44;;;;;;;;;;;;;;;30.99;75.22;100889.88;5037751;28;70463;-41
2023/10/25 09:58:15;;;;;;;;;;;;;;;31.03;74.69;100891.06;5037637;28;67002;-41
2023/10/25 10:00:46;;;;;;;;;;;;;;;31.08;74.57;100902.09;5034390;28;69237;-41
2023/10/25 10:03:25;;;;;;;;;;;;;;;31.10;74.27;100913.53;5030405;28;66173;-42
2023/10/25 10:06:03;;;;;;;;;;;;;;;31.12;73.95;100916.88;5037031;28;70713;-43
2023/10/25 10:08:43;;;;;;;;;;;;;;;31.13;74.22;100926.66;5039068;28;66599;-43
2023/10/25 10:11:16;;;;;;;;;;;;;;;31.15;74.00;100927.25;5035932;28;69831;-40
2023/10/25 10:13:46;;;;;;;;;;;;;;;31.18;73.63;100926.00;5036060;28;66283;-42
2023/10/25 10:16:18;;;;;;;;;;;;;;;31.19;74.07;100934.94;5044979;28;70340;-41
2023/10/25 10:18:52;;;;;;;;;;;;;;;31.20;73.86;100931.16;5043431;28;66332;-43
2023/10/25 10:21:21;;;;;;;;;;;;;;;31.21;74.22;100933.69;5035981;28;70663;-40
2023/10/25 10:23:51;;;;;;;;;;;;;;;31.22;74.68;100937.22;5040466;28;66648;-40
2023/10/25 10:26:40;;;;;;;;;;;;;;;31.23;74.39;100944.28;5038722;28;70764;-41
2023/10/25 10:29:28;;;;;;;;;;;;;;;31.23;74.40;100947.00;5041537;28;66077;-41
2023/10/25 10:31:59;;;;;;;;;;;;;;;31.23;73.84;100950.56;5041508;28;70398;-40
2023/10/25 10:34:47;;;;;;;;;;;;;;;31.23;73.93;100966.81;5043181;28;67018;-40
2023/10/25 10:37:17;;;;;;;;;;;;;;;31.25;73.21;100974.69;5026943;28;70818;-41
2023/10/25 10:39:56;;;;;;;;;;;;;;;31.25;73.90;100975.53;5043837;28;66957;-40
2023/10/25 10:42:33;;;;;;;;;;;;;;;31.25;74.03;100985.53;5042717;28;69325;-41
2023/10/25 10:45:05;;;;;;;;;;;;;;;31.24;73.87;100976.59;5041571;28;66519;-41
2023/10/25 10:47:43;;;;;;;;;;;;;;;31.25;73.80;100980.94;5044196;28;70016;-42
2023/10/25 10:50:14;;;;;;;;;;;;;;;31.26;74.17;100987.19;5044335;28;66775;-40
2023/10/25 10:52:44;;;;;;;;;;;;;;;31.26;73.69;100981.78;5043717;28;70707;-42
2023/10/25 10:55:16;;;;;;;;;;;;;;;31.25;73.87;100986.38;5041583;28;66065;-42
2023/10/25 10:57:46;;;;;;;;;;;;;;;31.25;73.90;100980.13;5042702;28;70026;-42
2023/10/25 11:00:36;;;;;;;;;;;;;;;31.25;74.13;100974.69;5047927;28;66915;-42
2023/10/25 11:03:05;;;;;;;;;;;;;;;31.25;73.81;100969.28;5039789;28;70246;-40
2023/10/25 11:05:38;;;;;;;;;;;;;;;31.25;73.33;100974.69;5043432;28;66312;-41
2023/10/25 11:08:10;;;;;;;;;;;;;;;31.24;74.10;100983.91;5042226;28;69990;-41
2023/10/25 11:10:40;;;;;;;;;;;;;;;31.24;73.79;100986.59;5042382;28;66887;-41
2023/10/25 11:13:10;;;;;;;;;;;;;;;31.23;73.85;100987.63;5043350;28;70450;-42
2023/10/25 11:15:40;;;;;;;;;;;;;;;31.23;73.48;100987.63;5041838;28;65448;-41
2023/10/25 11:18:10;;;;;;;;;;;;;;;31.23;74.04;100995.75;5042527;28;70668;-41
2023/10/25 11:20:41;;;;;;;;;;;;;;;31.21;73.97;100996.00;5040612;28;66028;-40
2023/10/25 11:23:11;;;;;;;;;;;;;;;31.21;73.71;100996.00;5041701;28;69213;-41
2023/10/25 11:25:41;;;;;;;;;;;;;;;31.21;73.69;101000.59;5043036;28;66598;-39
2023/10/25 11:28:18;;;;;;;;;;;;;;;31.20;73.94;100994.31;5042373;28;70034;-40
2023/10/25 11:30:49;;;;;;;;;;;;;;;31.19;74.19;100997.28;5032571;28;65498;-41
2023/10/25 11:33:20;;;;;;;;;;;;;;;31.19;73.99;100994.56;5040138;28;70373;-41
2023/10/25 11:35:50;;;;;;;;;;;;;;;31.17;73.78;101000.19;5041991;28;65432;-41
2023/10/25 11:38:20;;;;;;;;;;;;;;;31.16;74.20;101003.97;5035556;28;70587;-41
2023/10/25 11:40:50;;;;;;;;;;;;;;;31.16;74.20;101006.66;5038441;28;66050;-40
2023/10/25 11:43:20;;;;;;;;;;;;;;;31.15;74.46;101013.97;5040454;28;69663;-40
2023/10/25 11:45:50;;;;;;;;;;;;;;;31.15;74.32;101018.56;5054082;28;66892;-39
2023/10/25 11:48:21;;;;;;;;;;;;;;;31.14;74.30;101019.59;5043584;28;69804;-40
2023/10/25 11:50:51;;;;;;;;;;;;;;;31.13;74.21;101021.47;5042391;28;66676;-41
2023/10/25 11:53:23;;;;;;;;;;;;;;;31.11;74.35;101023.56;5041002;28;70060;-41
2023/10/25 11:55:58;;;;;;;;;;;;;;;31.11;74.44;101029.00;5035698;28;66756;-40
2023/10/25 11:58:29;;;;;;;;;;;;;;;31.11;74.54;101039.81;5038835;28;69996;-41
2023/10/25 12:01:04;;;;;;;;;;;;;;;31.09;74.57;101041.94;5037029;28;67046;-42
2023/10/25 12:03:40;;;;;;;;;;;;;;;31.09;74.52;101039.25;5023734;28;68977;-41
2023/10/25 12:06:11;;;;;;;;;;;;;;;31.08;75.08;101040.25;5047449;28;65861;-40
2023/10/25 12:08:42;;;;;;;;;;;;;;;31.08;74.95;101040.25;5028967;28;70040;-41
2023/10/25 12:11:12;;;;;;;;;;;;;;;31.07;74.64;101044.03;5040392;28;65527;-42
2023/10/25 12:13:42;;;;;;;;;;;;;;;31.06;74.47;101047.78;5036530;28;70344;-40
2023/10/25 12:16:12;;;;;;;;;;;;;;;31.05;74.93;101059.66;5040270;28;66895;-41
2023/10/25 12:18:42;;;;;;;;;;;;;;;31.04;75.18;101065.31;5039985;28;70636;-41
2023/10/25 12:21:12;;;;;;;;;;;;;;;31.04;77.72;101082.41;5037777;28;65806;-43
2023/10/25 12:23:42;;;;;;;;;;;;;;;31.04;76.21;101077.00;5038777;28;70549;-40
2023/10/25 12:26:11;;;;;;;;;;;;;;;31.04;75.88;101079.69;5040952;28;66455;-41
2023/10/25 12:28:41;;;;;;;;;;;;;;;31.05;75.96;101084.06;5033301;28;70541;-41
2023/10/25 12:31:11;;;;;;;;;;;;;;;31.04;75.91;101089.72;5038914;28;66450;-40
2023/10/25 12:33:42;;;;;;;;;;;;;;;31.04;75.66;101087.81;5036983;28;69451;-39
2023/10/25 12:36:12;;;;;;;;;;;;;;;31.03;75.51;101102.41;5042603;28;66974;-41
2023/10/25 12:38:44;;;;;;;;;;;;;;;31.02;76.20;101111.59;5042693;28;70609;-41
2023/10/25 12:41:14;;;;;;;;;;;;;;;31.02;75.79;101113.47;5026394;28;66152;-41
2023/10/25 12:43:43;;;;;;;;;;;;;;;31.02;76.16;101118.88;5041058;28;70351;-41
2023/10/25 12:46:14;;;;;;;;;;;;;;;30.99;78.28;101117.44;5042125;28;66896;-40
2023/10/25 12:48:43;;;;;;;;;;;;;;;30.99;77.21;101122.84;5041564;28;70595;-41
2023/10/25 12:51:14;;;;;;;;;;;;;;;30.99;76.47;101122.84;5042051;28;65531;-40
2023/10/25 12:53:43;;;;;;;;;;;;;;;30.98;76.24;101131.19;5040047;28;70023;-40
2023/10/25 12:56:13;;;;;;;;;;;;;;;30.98;76.41;101126.63;5027962;28;65472;-40